Time;durP1;ratioP1;P1;durP2;ratioP2;P2;SDS_P1;SDS_P2;PMS_P1;PMS_P2;Temp;Humidity;BMP_temperature;BMP_pressure;BME280_temperature;BME280_humidity;BME280_pressure;Samples;Min_cycle;Max_cycle;Signal;HPM_P1;HPM_P2
2022/01/15 00:02:13;;;;;;;;;16.25;15.50;;;;;12.35;43.03;99338.53;6287538;22;103505;-79
2022/01/15 00:04:40;;;;;;;;;11.00;10.50;;;;;12.34;43.19;99331.41;6324670;22;104638;-79
2022/01/15 00:07:07;;;;;;;;;11.00;10.00;;;;;12.34;43.35;99341.41;6316659;22;102001;-80
2022/01/15 00:09:34;;;;;;;;;11.00;11.00;;;;;12.32;43.23;99341.63;6316157;22;102340;-86
2022/01/15 00:12:01;;;;;;;;;12.00;12.00;;;;;12.29;43.17;99335.75;6311332;22;103472;-86
2022/01/15 00:14:35;;;;;;;;;13.75;13.25;;;;;12.30;43.90;99330.13;6321551;22;101924;-86
2022/01/15 00:17:15;;;;;;;;;12.50;11.00;;;;;12.30;43.27;99340.13;6286438;22;102076;-87
2022/01/15 00:19:43;;;;;;;;;12.00;10.00;;;;;12.29;43.57;99335.75;6304536;22;101752;-86
2022/01/15 00:22:16;;;;;;;;;10.50;9.50;;;;;12.30;42.96;99343.69;6319677;22;103266;-82
2022/01/15 00:24:43;;;;;;;;;12.75;11.50;;;;;12.30;43.73;99342.84;6312159;22;102084;-86
2022/01/15 00:27:10;;;;;;;;;14.00;13.00;;;;;12.29;43.26;99333.84;6326636;22;102208;-84
2022/01/15 00:29:37;;;;;;;;;13.25;10.25;;;;;12.28;43.36;99348.47;6327784;22;102337;-87
2022/01/15 00:32:06;;;;;;;;;10.00;9.00;;;;;12.29;43.55;99342.00;6284976;22;103452;-87
2022/01/15 00:34:34;;;;;;;;;10.00;10.00;;;;;12.28;43.22;99334.91;6321481;22;101794;-86
2022/01/15 00:37:02;;;;;;;;;11.00;10.25;;;;;12.29;43.69;99335.75;6321095;22;101785;-87
2022/01/15 00:39:29;;;;;;;;;14.00;12.75;;;;;12.30;42.97;99340.97;6321307;22;101622;-87
2022/01/15 00:41:56;;;;;;;;;10.25;10.25;;;;;12.35;43.40;99346.66;6321671;22;103316;-87
2022/01/15 00:44:23;;;;;;;;;9.75;9.75;;;;;12.38;43.28;99348.97;6322711;22;101731;-87
2022/01/15 00:46:50;;;;;;;;;10.00;10.00;;;;;12.39;43.09;99341.66;6321112;22;101734;-86
2022/01/15 00:49:17;;;;;;;;;12.75;10.75;;;;;12.39;43.32;99350.66;6283459;22;101914;-86
2022/01/15 00:51:44;;;;;;;;;10.00;9.00;;;;;12.40;43.32;99344.19;6306151;22;103085;-87
2022/01/15 00:54:11;;;;;;;;;9.00;7.00;;;;;12.39;42.39;99342.50;6316174;22;102049;-85
2022/01/15 00:56:38;;;;;;;;;8.00;8.00;;;;;12.42;43.20;99355.72;6314312;22;101802;-86
2022/01/15 00:59:05;;;;;;;;;10.00;10.00;;;;;12.41;42.65;99348.59;6310268;22;102033;-86
2022/01/15 01:01:34;;;;;;;;;9.25;8.50;;;;;12.41;43.23;99353.19;6282489;22;103555;-86
2022/01/15 01:04:01;;;;;;;;;9.75;8.50;;;;;12.40;43.19;99365.06;6304558;22;103711;-86
2022/01/15 01:06:28;;;;;;;;;10.75;9.00;;;;;12.41;42.48;99351.31;6316882;22;102069;-86
2022/01/15 01:08:55;;;;;;;;;7.00;7.00;;;;;12.42;42.91;99358.44;6283583;22;102072;-87
2022/01/15 01:11:32;;;;;;;;;8.00;8.00;;;;;12.42;43.08;99365.72;6295579;22;103462;-86
2022/01/15 01:24:49;;;;;;;;;8.75;8.50;;;;;12.31;43.35;99372.47;6324210;22;101964;-86
2022/01/15 01:27:26;;;;;;;;;9.25;8.50;;;;;12.31;43.15;99356.22;6315582;22;101957;-87
2022/01/15 01:33:17;;;;;;;;;9.00;9.00;;;;;12.29;42.98;99355.56;6240577;22;107344;-87
2022/01/15 01:35:49;;;;;;;;;7.00;7.00;;;;;12.32;42.50;99365.19;6275630;22;102048;-86
2022/01/15 01:38:28;;;;;;;;;8.00;8.00;;;;;12.28;43.12;99353.06;6286351;22;102085;-86
2022/01/15 01:40:58;;;;;;;;;7.00;7.00;;;;;12.30;43.35;99359.09;6293143;22;101740;-87
2022/01/15 01:46:29;;;;;;;;;8.00;8.00;;;;;12.31;43.35;99356.22;6277896;22;101748;-87
2022/01/15 01:48:57;;;;;;;;;10.50;9.25;;;;;12.31;42.71;99358.94;6246833;22;102731;-87
2022/01/15 01:51:33;;;;;;;;;10.00;8.75;;;;;12.29;43.05;99358.25;6317351;22;101688;-86
2022/01/15 01:54:05;;;;;;;;;8.00;8.00;;;;;12.30;43.22;99353.69;6232312;22;103398;-87
2022/01/15 01:56:33;;;;;;;;;11.00;9.00;;;;;12.28;43.09;99356.59;6251155;22;102480;-87
2022/01/15 01:59:00;;;;;;;;;7.50;7.00;;;;;12.28;42.63;99363.91;6258522;22;102454;-86
2022/01/15 02:01:29;;;;;;;;;7.00;7.00;;;;;12.23;42.53;99359.06;6238201;22;102221;-86
2022/01/15 02:03:56;;;;;;;;;10.25;8.75;;;;;12.24;43.06;99362.63;6255949;22;103508;-86
2022/01/15 02:06:23;;;;;;;;;8.25;7.50;;;;;12.21;42.52;99355.69;6259866;22;104236;-87
2022/01/15 02:08:51;;;;;;;;;10.25;9.00;;;;;12.18;43.22;99350.66;6251960;22;102285;-85
2022/01/15 02:11:18;;;;;;;;;7.00;6.00;;;;;12.15;43.23;99356.47;6219102;22;101994;-85
2022/01/15 02:13:46;;;;;;;;;8.00;8.00;;;;;12.13;43.17;99347.69;6164483;22;102524;-85
2022/01/15 02:16:14;;;;;;;;;7.25;5.50;;;;;12.18;43.18;99349.81;6246922;22;101896;-85
2022/01/15 02:18:41;;;;;;;;;7.50;5.25;;;;;12.18;42.81;99355.25;6256825;22;101844;-85
2022/01/15 02:23:44;;;;;;;;;4.75;4.25;;;;;12.15;43.11;99356.47;6277782;22;103498;-85
2022/01/15 02:26:18;;;;;;;;;8.25;7.25;;;;;12.14;43.19;99346.66;6255982;22;101933;-85
2022/01/15 02:28:51;;;;;;;;;7.00;7.00;;;;;12.13;43.54;99346.84;6248762;22;102017;-84
2022/01/15 02:31:19;;;;;;;;;8.50;8.00;;;;;12.12;43.34;99351.41;6273409;22;102173;-84
2022/01/15 02:33:48;;;;;;;;;8.00;7.00;;;;;12.11;43.19;99348.91;6283982;22;103503;-78
2022/01/15 02:36:18;;;;;;;;;7.50;7.00;;;;;12.11;43.21;99359.75;6279276;22;109761;-80
2022/01/15 02:38:46;;;;;;;;;8.00;8.00;;;;;12.10;43.41;99358.94;6272155;22;102107;-78
2022/01/15 02:41:13;;;;;;;;;8.00;7.75;;;;;12.10;43.79;99364.34;6280920;22;101842;-78
2022/01/15 02:43:40;;;;;;;;;8.75;8.00;;;;;12.09;43.05;99362.66;6280427;22;108156;-78
2022/01/15 02:46:21;;;;;;;;;7.50;5.00;;;;;12.10;43.34;99369.78;6284004;22;101927;-78
2022/01/15 02:48:52;;;;;;;;;6.50;5.00;;;;;12.07;43.31;99367.41;6281390;22;101684;-78
2022/01/15 02:51:20;;;;;;;;;5.25;5.25;;;;;12.06;43.27;99365.75;6257908;22;102144;-85
2022/01/15 02:53:54;;;;;;;;;6.50;5.50;;;;;12.08;42.86;99366.41;6199954;22;1362526;-85
2022/01/15 02:56:31;;;;;;;;;8.00;7.00;;;;;12.05;43.64;99367.63;6292614;22;102025;-86
2022/01/15 02:58:59;;;;;;;;;9.00;7.00;;;;;12.04;43.37;99363.22;6293516;22;101736;-85
2022/01/15 03:01:26;;;;;;;;;4.75;4.50;;;;;12.03;43.73;99361.56;6268847;22;102154;-85
2022/01/15 03:03:54;;;;;;;;;6.00;5.25;;;;;12.02;43.26;99368.00;6286990;22;105006;-85
2022/01/15 03:06:21;;;;;;;;;7.00;6.75;;;;;11.99;43.11;99367.53;6317045;22;101800;-85
2022/01/15 03:08:49;;;;;;;;;6.50;6.50;;;;;12.04;43.15;99365.94;6255337;22;101858;-85
2022/01/15 03:11:16;;;;;;;;;7.00;4.75;;;;;12.09;42.80;99373.50;6268388;22;102023;-85
2022/01/15 03:13:43;;;;;;;;;5.00;4.25;;;;;12.13;43.22;99379.38;6299327;22;102638;-86
2022/01/15 03:16:13;;;;;;;;;5.00;5.00;;;;;12.15;42.89;99370.03;6292175;22;101862;-85
2022/01/15 03:18:40;;;;;;;;;5.00;5.00;;;;;12.18;42.84;99374.22;6290490;22;101665;-86
2022/01/15 03:21:07;;;;;;;;;5.00;4.00;;;;;12.21;43.11;99377.38;6288436;22;102200;-85
2022/01/15 03:23:34;;;;;;;;;5.50;4.00;;;;;12.22;43.47;99373.63;6264475;22;102798;-86
2022/01/15 03:26:02;;;;;;;;;9.50;5.50;;;;;12.26;42.55;99374.94;6265191;22;101920;-85
2022/01/15 03:28:29;;;;;;;;;5.25;5.25;;;;;12.31;43.27;99375.19;6290138;22;101532;-85
2022/01/15 03:30:56;;;;;;;;;5.75;5.25;;;;;12.34;43.18;99372.09;6289803;22;101736;-84
2022/01/15 03:33:23;;;;;;;;;7.00;5.50;;;;;12.36;42.62;99367.31;6285982;22;102784;-85
2022/01/15 03:35:50;;;;;;;;;4.50;4.50;;;;;12.40;43.36;99370.47;6318942;22;102045;-83
2022/01/15 03:38:17;;;;;;;;;7.00;4.75;;;;;12.43;43.18;99373.63;6325880;22;101865;-85
2022/01/15 03:40:44;;;;;;;;;5.00;5.00;;;;;12.46;42.99;99380.56;6330033;22;101885;-86
2022/01/15 03:43:11;;;;;;;;;5.50;3.75;;;;;12.48;43.10;99373.91;6305472;22;108071;-78
2022/01/15 03:45:38;;;;;;;;;5.00;5.00;;;;;12.51;42.18;99376.25;6322528;22;102041;-78
2022/01/15 03:48:05;;;;;;;;;4.00;3.50;;;;;12.55;42.47;99373.13;6290141;22;101858;-78
2022/01/15 03:50:33;;;;;;;;;4.25;3.25;;;;;12.59;42.52;99380.69;6324438;22;102239;-78
2022/01/15 03:52:59;;;;;;;;;4.00;4.00;;;;;12.61;41.99;99391.34;6320026;22;103492;-78
2022/01/15 03:55:27;;;;;;;;;2.50;1.75;;;;;12.66;42.98;99391.59;6320598;22;101783;-78
2022/01/15 03:57:54;;;;;;;;;4.50;4.00;;;;;12.67;42.34;99379.69;6319455;22;102017;-79
2022/01/15 04:00:24;;;;;;;;;3.50;3.50;;;;;12.68;42.58;99384.94;6317368;22;102168;-79
2022/01/15 04:02:51;;;;;;;;;5.50;4.25;;;;;12.69;42.75;99399.34;6312859;22;103416;-79
2022/01/15 04:05:19;;;;;;;;;7.50;4.75;;;;;12.72;42.97;99396.25;6319722;22;101713;-79
2022/01/15 04:07:47;;;;;;;;;4.50;3.50;;;;;12.72;42.86;99393.53;6318134;22;102119;-79
2022/01/15 04:10:15;;;;;;;;;4.75;4.00;;;;;12.73;42.06;99389.78;6325634;22;101902;-79
2022/01/15 04:12:42;;;;;;;;;4.75;2.50;;;;;12.75;42.90;99385.81;6324803;22;108411;-79
2022/01/15 04:15:10;;;;;;;;;5.00;5.00;;;;;12.76;42.24;99398.38;6320534;22;101842;-79
2022/01/15 04:17:37;;;;;;;;;4.25;4.00;;;;;12.76;42.11;99387.50;6293553;22;101977;-79
2022/01/15 04:20:04;;;;;;;;;4.75;4.00;;;;;12.76;42.16;99395.66;6319806;22;102003;-78
2022/01/15 04:22:31;;;;;;;;;4.00;3.75;;;;;12.78;42.82;99390.03;6320003;22;102554;-79
2022/01/15 04:24:59;;;;;;;;;5.00;3.50;;;;;12.79;41.92;99397.13;6290241;22;102148;-79
2022/01/15 04:27:25;;;;;;;;;4.00;4.00;;;;;12.78;42.02;99399.03;6319813;22;102125;-79
2022/01/15 04:29:55;;;;;;;;;3.75;3.75;;;;;12.78;41.94;99406.31;6317382;22;102478;-79
2022/01/15 04:32:22;;;;;;;;;3.75;3.25;;;;;12.77;42.11;99396.50;6317762;22;103291;-80
2022/01/15 04:34:49;;;;;;;;;4.00;4.00;;;;;12.77;41.86;99404.63;6316169;22;102203;-79
2022/01/15 04:37:20;;;;;;;;;5.00;5.00;;;;;12.78;41.74;99399.03;6320546;22;101614;-79
2022/01/15 04:39:47;;;;;;;;;4.00;4.00;;;;;12.79;42.38;99407.97;6296322;22;101727;-79
2022/01/15 04:42:20;;;;;;;;;4.00;3.25;;;;;12.79;42.89;99403.41;6326354;22;103591;-79
2022/01/15 04:44:47;;;;;;;;;5.00;4.00;;;;;12.79;42.32;99408.81;6310424;22;101655;-80
2022/01/15 04:47:14;;;;;;;;;3.75;3.50;;;;;12.77;42.69;99410.06;6320309;22;101895;-79
2022/01/15 04:49:41;;;;;;;;;4.75;4.00;;;;;12.77;41.84;99410.91;6309363;22;102248;-79
2022/01/15 04:52:09;;;;;;;;;4.75;4.00;;;;;12.76;42.65;99413.81;6323674;22;103307;-79
2022/01/15 04:54:36;;;;;;;;;3.00;2.75;;;;;12.76;42.16;99417.38;6320151;22;101843;-80
2022/01/15 04:57:04;;;;;;;;;3.00;3.00;;;;;12.77;41.87;99426.34;6319152;22;101917;-79
2022/01/15 04:59:31;;;;;;;;;3.25;3.25;;;;;12.75;42.81;99422.97;6325603;22;102184;-80
2022/01/15 05:01:58;;;;;;;;;4.50;3.25;;;;;12.76;42.75;99419.22;6318663;22;103266;-79
2022/01/15 05:04:25;;;;;;;;;2.75;2.75;;;;;12.74;41.76;99422.13;6322545;22;102128;-79
2022/01/15 05:06:52;;;;;;;;;2.00;2.00;;;;;12.75;42.45;99420.25;6319294;22;102078;-80
2022/01/15 05:09:19;;;;;;;;;4.75;4.75;;;;;12.74;42.32;99418.59;6319925;22;102180;-80
2022/01/15 05:11:49;;;;;;;;;4.00;4.00;;;;;12.72;42.02;99418.78;6325499;22;103597;-80
2022/01/15 05:14:16;;;;;;;;;3.00;3.00;;;;;12.71;41.83;99416.25;6320303;22;101711;-79
2022/01/15 05:16:44;;;;;;;;;4.00;4.00;;;;;12.69;42.40;99418.34;6319363;22;101866;-79
2022/01/15 05:19:11;;;;;;;;;6.50;5.00;;;;;12.64;42.34;99412.66;6318468;22;101790;-80
2022/01/15 05:21:38;;;;;;;;;4.25;3.25;;;;;12.63;42.18;99410.97;6295733;22;103490;-79
2022/01/15 05:24:06;;;;;;;;;4.25;3.75;;;;;12.61;42.30;99404.91;6323386;22;101892;-79
2022/01/15 05:26:33;;;;;;;;;4.25;4.25;;;;;12.59;41.76;99406.97;6291625;22;102213;-80
2022/01/15 05:29:00;;;;;;;;;3.25;3.25;;;;;12.59;41.73;99406.97;6321632;22;102150;-79
2022/01/15 05:31:27;;;;;;;;;3.75;3.00;;;;;12.59;42.23;99407.81;6322912;22;103933;-80
2022/01/15 05:33:55;;;;;;;;;3.50;3.50;;;;;12.59;42.71;99413.25;6319096;22;101734;-79
2022/01/15 05:36:22;;;;;;;;;4.00;4.00;;;;;12.58;42.76;99416.13;6319484;22;102094;-79
2022/01/15 05:38:49;;;;;;;;;3.75;3.75;;;;;12.56;42.20;99416.34;6316346;22;103161;-80
2022/01/15 05:41:16;;;;;;;;;3.50;3.00;;;;;12.58;41.86;99414.28;6326302;22;103428;-80
2022/01/15 05:43:45;;;;;;;;;4.00;3.50;;;;;12.56;42.30;99415.50;6313811;22;101799;-79
2022/01/15 05:46:12;;;;;;;;;4.25;4.00;;;;;12.55;42.70;99413.81;6312203;22;101646;-80
2022/01/15 05:48:39;;;;;;;;;3.00;3.00;;;;;12.55;42.07;99424.69;6277536;22;102194;-78
2022/01/15 05:51:06;;;;;;;;;3.75;3.75;;;;;12.52;42.66;99418.59;6318773;22;103326;-79
2022/01/15 05:53:33;;;;;;;;;4.00;4.00;;;;;12.53;41.93;99433.84;6317097;22;101873;-79
2022/01/15 05:56:00;;;;;;;;;3.50;3.50;;;;;12.53;41.88;99424.84;6321328;22;101768;-79
2022/01/15 05:58:27;;;;;;;;;5.75;4.75;;;;;12.52;41.77;99432.16;6317254;22;102078;-80
2022/01/15 06:00:54;;;;;;;;;4.00;4.00;;;;;12.51;42.73;99425.06;6314490;22;103278;-79
2022/01/15 06:03:22;;;;;;;;;2.75;2.75;;;;;12.50;42.70;99430.69;6323098;22;101807;-80
2022/01/15 06:05:49;;;;;;;;;3.00;3.00;;;;;12.45;42.55;99427.69;6295695;22;101945;-80
2022/01/15 06:08:16;;;;;;;;;3.75;3.75;;;;;12.41;43.11;99437.25;6327354;22;102176;-79
2022/01/15 06:10:43;;;;;;;;;4.75;4.25;;;;;12.40;42.28;99436.41;6289566;22;107741;-80
2022/01/15 06:13:10;;;;;;;;;5.00;3.00;;;;;12.38;42.92;99427.63;6321436;22;101684;-80
2022/01/15 06:15:37;;;;;;;;;3.00;3.00;;;;;12.37;42.17;99438.69;6321888;22;101889;-79
2022/01/15 06:18:04;;;;;;;;;3.00;3.00;;;;;12.35;42.70;99438.00;6319117;22;101745;-79
2022/01/15 06:20:31;;;;;;;;;4.00;4.00;;;;;12.34;42.84;99439.88;6322146;22;103466;-80
2022/01/15 06:22:58;;;;;;;;;3.00;3.00;;;;;12.34;42.39;99433.63;6301214;22;101675;-80
2022/01/15 06:25:25;;;;;;;;;4.25;2.00;;;;;12.33;42.88;99430.09;6324757;22;102022;-80
2022/01/15 06:27:52;;;;;;;;;2.75;2.75;;;;;12.33;42.92;99440.09;6325354;22;102200;-79
2022/01/15 06:30:19;;;;;;;;;4.00;3.00;;;;;12.30;43.07;99438.59;6321366;22;103546;-80
2022/01/15 06:32:46;;;;;;;;;2.00;1.00;;;;;12.29;42.53;99436.91;6329301;22;101961;-79
2022/01/15 06:35:14;;;;;;;;;3.00;2.50;;;;;12.29;42.47;99441.50;6322423;22;101722;-80
2022/01/15 06:37:41;;;;;;;;;3.00;2.75;;;;;12.28;42.84;99443.38;6327886;22;102064;-79
2022/01/15 06:40:08;;;;;;;;;3.25;3.00;;;;;12.28;42.72;99442.53;6319381;22;103451;-79
2022/01/15 06:42:36;;;;;;;;;3.75;3.00;;;;;12.26;42.44;99442.72;6323552;22;101656;-79
2022/01/15 06:45:04;;;;;;;;;4.75;3.50;;;;;12.28;42.68;99448.81;6294720;22;103481;-80
2022/01/15 06:47:31;;;;;;;;;4.00;4.00;;;;;12.26;42.80;99440.00;6291170;22;101811;-80
2022/01/15 06:50:04;;;;;;;;;3.25;3.00;;;;;12.26;42.47;99459.00;6318658;22;103544;-79
2022/01/15 06:52:33;;;;;;;;;3.00;3.00;;;;;12.24;42.51;99452.94;6317991;22;101836;-79
2022/01/15 06:55:00;;;;;;;;;2.25;2.25;;;;;12.22;42.21;99454.97;6325965;22;101910;-77
2022/01/15 06:57:27;;;;;;;;;4.00;4.00;;;;;12.20;42.45;99445.38;6325062;22;101739;-78
2022/01/15 06:59:54;;;;;;;;;3.00;3.00;;;;;12.20;42.71;99448.94;6298551;22;103767;-78
2022/01/15 07:02:21;;;;;;;;;3.00;3.00;;;;;12.20;43.21;99448.09;6317558;22;102139;-78
2022/01/15 07:04:48;;;;;;;;;5.25;3.00;;;;;12.20;42.62;99451.63;6293046;22;102045;-78
2022/01/15 07:07:15;;;;;;;;;4.25;3.25;;;;;12.19;42.50;99449.94;6328498;22;101683;-78
2022/01/15 07:09:42;;;;;;;;;3.75;2.75;;;;;12.18;42.85;99453.69;6316463;22;103312;-78
2022/01/15 07:12:10;;;;;;;;;7.00;3.00;;;;;12.18;43.00;99464.53;6320838;22;101994;-79
2022/01/15 07:14:37;;;;;;;;;3.00;3.00;;;;;12.17;42.62;99464.72;6326478;22;102192;-79
2022/01/15 07:17:04;;;;;;;;;4.50;3.25;;;;;12.16;42.90;99472.00;6318952;22;101967;-78
2022/01/15 07:19:32;;;;;;;;;5.00;4.00;;;;;12.16;42.85;99468.47;6295549;22;103512;-79
2022/01/15 07:21:59;;;;;;;;;3.50;2.75;;;;;12.15;42.60;99470.34;6327430;22;101933;-79
2022/01/15 07:24:26;;;;;;;;;2.25;2.25;;;;;12.19;42.24;99473.50;6299221;22;101934;-79
2022/01/15 07:26:53;;;;;;;;;4.00;3.00;;;;;12.22;42.67;99475.84;6324416;22;102152;-78
2022/01/15 07:29:20;;;;;;;;;3.25;3.00;;;;;12.24;42.68;99476.50;6327080;22;104138;-78
2022/01/15 07:31:47;;;;;;;;;3.00;3.00;;;;;12.24;43.05;99466.50;6299600;22;101885;-78
2022/01/15 07:34:14;;;;;;;;;3.25;3.25;;;;;12.25;43.02;99473.56;6314118;22;102309;-78
2022/01/15 07:36:41;;;;;;;;;3.75;3.75;;;;;12.24;42.59;99485.47;6325972;22;101940;-79
2022/01/15 07:39:09;;;;;;;;;5.00;3.75;;;;;12.24;42.77;99485.47;6295721;22;103304;-79
2022/01/15 07:41:36;;;;;;;;;3.00;3.00;;;;;12.24;42.28;99480.06;6289226;22;101887;-80
2022/01/15 07:44:04;;;;;;;;;4.00;3.00;;;;;12.22;42.82;99495.66;6287964;22;105486;-79
2022/01/15 07:46:31;;;;;;;;;3.25;3.00;;;;;12.20;42.69;99495.03;6284138;22;101917;-78
2022/01/15 07:48:58;;;;;;;;;3.00;2.75;;;;;12.23;42.70;99500.06;6291393;22;103359;-78
2022/01/15 07:51:25;;;;;;;;;3.00;3.00;;;;;12.22;42.35;99492.09;6301722;22;101578;-78
2022/01/15 07:53:52;;;;;;;;;4.00;3.00;;;;;12.20;42.24;99489.59;6268227;22;101980;-78
2022/01/15 07:56:19;;;;;;;;;5.00;4.75;;;;;12.20;42.54;99481.47;6325436;22;103989;-79
2022/01/15 07:58:46;;;;;;;;;4.50;4.25;;;;;12.24;42.70;99480.06;6327519;22;103339;-79
2022/01/15 08:01:13;;;;;;;;;3.75;3.75;;;;;12.25;42.57;99489.00;6312087;22;102015;-79
2022/01/15 08:03:41;;;;;;;;;3.00;2.75;;;;;12.27;42.05;99485.09;6324503;22;101909;-78
2022/01/15 08:06:09;;;;;;;;;3.00;3.00;;;;;12.25;42.27;99478.16;6324901;22;108369;-79
2022/01/15 08:08:36;;;;;;;;;3.00;3.00;;;;;12.27;42.42;99485.09;6320846;22;103443;-79
2022/01/15 08:11:05;;;;;;;;;6.50;4.75;;;;;12.28;42.22;99486.78;6320963;22;102040;-79
2022/01/15 08:13:32;;;;;;;;;3.00;3.00;;;;;12.29;41.85;99482.19;6325875;22;101808;-79
2022/01/15 08:16:01;;;;;;;;;6.50;3.00;;;;;12.30;41.92;99484.69;6328190;22;102125;-80
2022/01/15 08:18:28;;;;;;;;;4.50;4.50;;;;;12.29;41.88;99477.59;6288390;22;103455;-79
2022/01/15 08:20:55;;;;;;;;;3.50;3.50;;;;;12.29;42.66;99472.16;6324603;22;101885;-79
2022/01/15 08:23:23;;;;;;;;;3.50;3.00;;;;;12.30;42.09;99483.84;6324810;22;101673;-80
2022/01/15 08:25:50;;;;;;;;;5.00;4.00;;;;;12.29;41.96;99480.28;6326883;22;101687;-80
2022/01/15 08:28:17;;;;;;;;;6.00;3.00;;;;;12.28;42.53;99481.34;6324016;22;104054;-80
2022/01/15 08:30:44;;;;;;;;;4.50;4.00;;;;;12.29;42.22;99491.13;6324899;22;102080;-80
2022/01/15 08:33:12;;;;;;;;;3.00;3.00;;;;;12.28;42.56;99491.34;6320843;22;102006;-80
2022/01/15 08:35:39;;;;;;;;;4.25;3.25;;;;;12.24;42.56;99500.91;6319517;22;103724;-79
2022/01/15 08:38:06;;;;;;;;;3.00;3.00;;;;;12.25;42.77;99497.13;6324644;22;103310;-80
2022/01/15 08:40:33;;;;;;;;;4.50;3.75;;;;;12.25;42.47;99497.97;6291305;22;101747;-79
2022/01/15 08:43:00;;;;;;;;;3.00;3.00;;;;;12.27;42.00;99501.34;6325798;22;101975;-79
2022/01/15 08:45:28;;;;;;;;;3.00;3.00;;;;;12.26;42.65;99509.66;6318094;22;101947;-78
2022/01/15 08:47:55;;;;;;;;;3.75;3.00;;;;;12.25;42.04;99503.41;6316397;22;103660;-80
2022/01/15 08:50:22;;;;;;;;;3.25;3.25;;;;;12.26;42.19;99499.66;6314903;22;102079;-79
2022/01/15 08:52:50;;;;;;;;;4.25;4.00;;;;;12.25;42.47;99511.53;6323409;22;102181;-79
2022/01/15 08:55:17;;;;;;;;;3.50;3.25;;;;;12.23;42.64;99510.91;6288649;22;101994;-79
2022/01/15 08:57:45;;;;;;;;;3.00;3.00;;;;;12.24;42.01;99509.88;6297252;22;103341;-80
2022/01/15 09:00:15;;;;;;;;;3.25;2.00;;;;;12.25;42.08;99508.81;6324306;22;101960;-79
2022/01/15 09:02:42;;;;;;;;;3.25;3.25;;;;;12.24;41.89;99501.75;6314220;22;102719;-79
2022/01/15 09:05:09;;;;;;;;;2.75;2.75;;;;;12.25;42.06;99507.97;6315734;22;101684;-83
2022/01/15 09:07:36;;;;;;;;;4.00;3.25;;;;;12.22;42.44;99509.22;6323221;22;103571;-79
2022/01/15 09:10:03;;;;;;;;;3.50;3.50;;;;;12.24;42.83;99509.88;6325822;22;101675;-79
2022/01/15 09:12:31;;;;;;;;;7.00;4.00;;;;;12.24;42.26;99500.91;6318240;22;101893;-78
2022/01/15 09:15:18;;;;;;;;;4.00;3.50;;;;;12.23;42.30;99501.94;6256812;22;101662;-80
2022/01/15 09:17:46;;;;;;;;;3.00;2.25;;;;;12.24;42.76;99518.00;6295307;22;107344;-80
2022/01/15 09:20:13;;;;;;;;;4.00;3.50;;;;;12.24;42.50;99515.31;6316403;22;102053;-79
2022/01/15 09:22:40;;;;;;;;;3.00;3.00;;;;;12.23;42.26;99527.16;6314975;22;102112;-80
2022/01/15 09:25:08;;;;;;;;;2.75;2.00;;;;;12.19;42.64;99520.44;6297940;22;102057;-79
2022/01/15 09:30:20;;;;;;;;;4.50;2.50;;;;;12.23;42.37;99521.75;6323231;22;101859;-79
2022/01/15 09:32:53;;;;;;;;;2.25;2.25;;;;;12.22;42.13;99530.91;6327995;22;101766;-79
2022/01/15 09:35:22;;;;;;;;;4.00;3.00;;;;;12.23;42.14;99521.75;6323219;22;103548;-80
2022/01/15 09:37:49;;;;;;;;;3.50;3.00;;;;;12.21;42.93;99522.94;6296745;22;103496;-79
2022/01/15 09:40:17;;;;;;;;;4.00;4.00;;;;;12.22;43.00;99511.06;6316714;22;101882;-80
2022/01/15 09:42:44;;;;;;;;;4.00;4.00;;;;;12.23;43.04;99521.75;6266546;22;101914;-80
2022/01/15 09:45:11;;;;;;;;;3.50;3.00;;;;;12.23;42.90;99510.91;6314203;22;101837;-80
2022/01/15 09:47:39;;;;;;;;;3.00;2.00;;;;;12.23;42.61;99510.06;6325861;22;103393;-80
2022/01/15 09:50:08;;;;;;;;;4.00;2.25;;;;;12.23;42.58;99510.91;6316238;22;102982;-80
2022/01/15 09:52:35;;;;;;;;;5.00;4.00;;;;;12.23;42.75;99512.78;6322656;22;104764;-80
2022/01/15 09:55:04;;;;;;;;;3.25;3.00;;;;;12.22;43.57;99509.22;6324696;22;102079;-81
2022/01/15 09:57:31;;;;;;;;;4.25;2.50;;;;;12.20;42.93;99505.88;6312711;22;103346;-81
2022/01/15 09:59:58;;;;;;;;;5.75;2.75;;;;;12.20;42.89;99505.88;6320244;22;101975;-80
2022/01/15 10:02:25;;;;;;;;;4.00;3.00;;;;;12.22;43.18;99503.78;6315501;22;101949;-80
2022/01/15 10:04:52;;;;;;;;;3.00;3.00;;;;;12.22;42.99;99503.78;6321480;22;101755;-80
2022/01/15 10:07:27;;;;;;;;;3.00;3.00;;;;;12.24;43.67;99500.91;6297698;22;103399;-80
2022/01/15 10:09:55;;;;;;;;;4.00;3.00;;;;;12.25;42.86;99500.69;6321198;22;101811;-80
2022/01/15 10:12:31;;;;;;;;;3.00;2.00;;;;;12.26;42.88;99501.53;6319350;22;101902;-80
2022/01/15 10:15:05;;;;;;;;;7.00;3.25;;;;;12.28;43.43;99507.63;6330003;22;101783;-82
2022/01/15 10:17:33;;;;;;;;;5.00;3.25;;;;;12.29;42.49;99504.69;6324750;22;102527;-80
2022/01/15 10:20:05;;;;;;;;;3.00;2.50;;;;;12.29;43.13;99493.84;6323377;22;101870;-79
2022/01/15 10:22:32;;;;;;;;;2.00;2.00;;;;;12.33;42.82;99500.59;6321947;22;102074;-80
2022/01/15 10:25:07;;;;;;;;;4.00;3.00;;;;;12.33;42.87;99500.59;6298425;22;102187;-80
2022/01/15 10:27:38;;;;;;;;;3.00;3.00;;;;;12.36;42.91;99504.78;6321860;22;103296;-80
2022/01/15 10:30:08;;;;;;;;;4.50;3.00;;;;;12.37;42.96;99498.34;6293078;22;102051;-79
2022/01/15 10:32:38;;;;;;;;;2.25;2.25;;;;;12.37;42.92;99507.31;6326948;22;101581;-79
2022/01/15 10:35:13;;;;;;;;;3.25;3.00;;;;;12.34;43.72;99501.41;6328696;22;101989;-79
2022/01/15 10:37:53;;;;;;;;;4.25;3.00;;;;;12.38;43.35;99500.03;6315911;22;102728;-79
2022/01/15 10:40:25;;;;;;;;;2.25;2.00;;;;;12.40;42.57;99506.94;6297300;22;101837;-79
2022/01/15 10:42:55;;;;;;;;;2.50;2.50;;;;;12.44;42.56;99504.69;6306891;22;101826;-80
2022/01/15 10:45:23;;;;;;;;;1.75;1.75;;;;;12.50;43.05;99502.06;6324502;22;103663;-79
2022/01/15 10:47:52;;;;;;;;;3.75;3.00;;;;;12.53;42.40;99490.81;6325678;22;107921;-80
2022/01/15 10:50:27;;;;;;;;;2.00;2.00;;;;;12.58;42.16;99500.25;6315915;22;102096;-77
2022/01/15 10:52:55;;;;;;;;;5.00;3.50;;;;;12.62;42.42;99504.25;6311063;22;101922;-78
2022/01/15 10:55:30;;;;;;;;;3.00;3.00;;;;;12.66;42.16;99505.53;6320568;22;102116;-78
2022/01/15 10:58:04;;;;;;;;;2.75;2.50;;;;;12.69;42.98;99511.44;6295863;22;107305;-79
2022/01/15 11:00:49;;;;;;;;;2.00;2.00;;;;;12.74;42.32;99513.59;6321294;22;105091;-78
2022/01/15 11:03:17;;;;;;;;;4.00;3.25;;;;;12.77;42.67;99507.75;6325844;22;101886;-79
2022/01/15 11:05:45;;;;;;;;;2.00;2.00;;;;;12.82;42.40;99505.31;6299466;22;101909;-79
2022/01/15 11:08:26;;;;;;;;;2.75;2.00;;;;;12.85;42.95;99504.91;6306214;22;103340;-79
2022/01/15 11:11:02;;;;;;;;;3.50;2.50;;;;;12.88;42.84;99493.66;6264515;22;101696;-79
2022/01/15 11:13:30;;;;;;;;;1.00;1.00;;;;;12.94;42.38;99506.47;6321839;22;101678;-79
2022/01/15 11:16:05;;;;;;;;;2.00;2.00;;;;;12.97;43.14;99503.34;6329322;22;102006;-78
2022/01/15 11:18:34;;;;;;;;;3.00;3.00;;;;;13.00;43.13;99497.56;6327404;22;103395;-79
2022/01/15 11:21:06;;;;;;;;;1.75;1.50;;;;;13.04;42.33;99507.00;6326185;22;101567;-77
2022/01/15 11:23:34;;;;;;;;;3.00;3.00;;;;;13.07;43.02;99498.44;6328576;22;101850;-78
2022/01/15 11:26:05;;;;;;;;;2.00;2.00;;;;;13.11;42.58;99501.63;6327421;22;102044;-79
2022/01/15 11:28:35;;;;;;;;;3.25;2.00;;;;;13.14;42.64;99507.53;6325782;22;103321;-80
2022/01/15 11:31:12;;;;;;;;;2.00;2.00;;;;;13.17;42.69;99501.72;6327896;22;102030;-78
2022/01/15 11:33:50;;;;;;;;;2.25;2.00;;;;;13.23;43.11;99498.22;6290685;22;102421;-79
2022/01/15 11:36:37;;;;;;;;;2.75;2.25;;;;;13.26;41.94;99500.53;6325762;22;102188;-79
2022/01/15 11:39:07;;;;;;;;;2.00;2.00;;;;;13.29;42.73;99491.13;6322534;22;107912;-79
2022/01/15 11:41:42;;;;;;;;;3.00;2.50;;;;;13.34;42.54;99492.25;6321348;22;102212;-78
2022/01/15 11:44:18;;;;;;;;;7.00;3.00;;;;;13.36;42.72;99486.63;6322266;22;101719;-78
2022/01/15 11:46:53;;;;;;;;;2.75;2.25;;;;;13.39;41.89;99489.78;6296037;22;101897;-78
2022/01/15 11:49:41;;;;;;;;;1.25;1.25;;;;;13.44;42.13;99494.63;6297588;22;108162;-79
2022/01/15 11:52:12;;;;;;;;;3.00;1.00;;;;;13.48;42.49;99495.06;6316450;22;101785;-79
2022/01/15 11:54:39;;;;;;;;;4.50;2.25;;;;;13.49;41.72;99491.31;6320955;22;102069;-78